createdAt,value
2017-11-22T00:01:52.865Z,82.00
2017-11-22T00:06:55.435Z,81.20
2017-11-22T00:11:57.993Z,81.30
2017-11-22T00:17:00.540Z,81.40
2017-11-22T00:22:03.096Z,81.50
2017-11-22T00:27:05.665Z,81.60
2017-11-22T00:32:08.236Z,81.50
2017-11-22T00:37:10.779Z,81.60
2017-11-22T00:42:13.315Z,81.50
2017-11-22T00:47:15.879Z,81.70
2017-11-22T00:52:18.422Z,81.60
2017-11-22T00:57:20.991Z,81.80
2017-11-22T01:02:23.569Z,81.60
2017-11-22T01:07:26.113Z,81.70
2017-11-22T01:12:28.677Z,81.70
2017-11-22T01:17:31.995Z,81.90
2017-11-22T01:22:35.316Z,82.10
2017-11-22T01:27:37.865Z,82.00
2017-11-22T01:32:40.418Z,82.20
2017-11-22T01:37:42.992Z,82.10
2017-11-22T01:42:45.543Z,82.40
2017-11-22T01:47:48.113Z,82.40
2017-11-22T01:52:50.672Z,82.60
2017-11-22T01:57:53.196Z,82.60
2017-11-22T02:03:08.404Z,82.60
2017-11-22T02:08:10.955Z,82.60
2017-11-22T02:13:13.511Z,82.60
2017-11-22T02:18:16.061Z,82.70
2017-11-22T02:23:18.638Z,82.80
2017-11-22T02:28:21.187Z,83.50
2017-11-22T02:33:23.749Z,82.80
2017-11-22T02:38:26.316Z,82.90
2017-11-22T02:43:28.880Z,82.60
2017-11-22T02:48:32.212Z,83.00
2017-11-22T02:53:34.752Z,83.00
2017-11-22T02:58:37.310Z,83.00
2017-11-22T03:03:39.876Z,83.00
2017-11-22T03:08:43.205Z,83.00
2017-11-22T03:13:46.529Z,83.00
2017-11-22T03:18:49.837Z,83.00
2017-11-22T03:23:52.396Z,83.00
2017-11-22T03:28:54.943Z,83.20
2017-11-22T03:33:57.499Z,82.90
2017-11-22T03:39:00.048Z,83.10
2017-11-22T03:44:02.597Z,83.10
2017-11-22T03:49:05.892Z,82.90
2017-11-22T03:54:08.451Z,82.90
2017-11-22T03:59:11.002Z,82.80
2017-11-22T04:04:13.543Z,82.80
2017-11-22T04:09:16.891Z,82.80
2017-11-22T04:14:19.453Z,82.80
2017-11-22T04:19:27.602Z,82.70
2017-11-22T04:24:30.143Z,82.70
2017-11-22T04:29:32.712Z,82.40
2017-11-22T04:34:35.296Z,81.90
2017-11-22T04:39:37.851Z,81.80
2017-11-22T04:44:40.418Z,81.80
2017-11-22T04:49:42.974Z,81.50
2017-11-22T04:54:46.292Z,81.40
2017-11-22T04:59:48.849Z,81.40
2017-11-22T05:04:51.422Z,81.20
2017-11-22T05:09:53.988Z,81.20
2017-11-22T05:14:56.543Z,81.20
2017-11-22T05:19:59.092Z,81.10
2017-11-22T05:25:01.656Z,81.30
2017-11-22T05:30:04.210Z,81.20
2017-11-22T05:35:06.769Z,81.20
2017-11-22T05:40:09.312Z,81.00
2017-11-22T05:45:11.880Z,81.10
2017-11-22T05:50:15.509Z,80.80
2017-11-22T05:55:18.052Z,80.80
2017-11-22T06:00:22.547Z,80.70
2017-11-22T06:05:25.102Z,80.70
2017-11-22T06:10:27.640Z,80.60
2017-11-22T06:15:30.188Z,80.80
2017-11-22T06:20:32.744Z,80.70
2017-11-22T06:25:36.360Z,80.60
2017-11-22T06:30:46.477Z,80.60
2017-11-22T06:35:49.265Z,80.80
2017-11-22T06:40:51.808Z,80.50
2017-11-22T06:45:54.360Z,80.60
2017-11-22T06:50:56.892Z,80.30
2017-11-22T06:55:59.455Z,80.20
2017-11-22T07:01:01.996Z,80.40
2017-11-22T07:06:05.316Z,80.10
2017-11-22T07:11:07.857Z,80.10
2017-11-22T07:21:38.565Z,79.70
2017-11-22T07:26:41.116Z,79.20
2017-11-22T07:31:44.435Z,79.60
2017-11-22T07:36:53.495Z,79.60
2017-11-22T07:41:56.040Z,79.60
2017-11-22T07:47:00.532Z,79.60
2017-11-22T07:52:08.695Z,79.80
2017-11-22T07:57:11.226Z,79.80
2017-11-22T08:02:13.756Z,79.90
2017-11-22T08:07:16.313Z,79.80
2017-11-22T08:12:18.852Z,79.70
2017-11-22T08:17:21.401Z,79.90
2017-11-22T08:22:23.944Z,79.80
2017-11-22T08:27:26.604Z,80.00
2017-11-22T08:32:29.136Z,80.30
2017-11-22T08:37:31.700Z,80.50
2017-11-22T08:42:37.068Z,81.10
2017-11-22T08:47:39.633Z,81.10
2017-11-22T08:52:42.188Z,81.00
2017-11-22T08:57:51.220Z,81.30
2017-11-22T09:02:54.857Z,81.30
2017-11-22T09:07:57.392Z,81.40
2017-11-22T09:13:06.433Z,81.30
2017-11-22T09:18:12.935Z,81.60
2017-11-22T09:23:15.475Z,81.60
2017-11-22T09:28:18.019Z,81.90
2017-11-22T09:33:20.565Z,82.00
2017-11-22T09:38:23.335Z,81.80
2017-11-22T09:43:25.882Z,82.30
2017-11-22T09:48:28.441Z,82.20
2017-11-22T09:53:30.975Z,82.40
2017-11-22T09:58:33.532Z,82.60
2017-11-22T10:03:36.072Z,83.00
2017-11-22T10:08:38.616Z,82.90
2017-11-22T10:13:41.162Z,82.70
2017-11-22T10:18:46.195Z,82.40
2017-11-22T10:23:48.744Z,82.50
2017-11-22T10:28:51.284Z,82.30
2017-11-22T10:33:53.852Z,82.50
2017-11-22T10:38:57.156Z,82.10
2017-11-22T10:44:00.480Z,82.50
2017-11-22T10:49:03.031Z,82.50
2017-11-22T10:54:05.604Z,82.60
2017-11-22T10:59:08.160Z,82.50
2017-11-22T11:04:11.468Z,82.50
2017-11-22T11:09:14.022Z,82.50
2017-11-22T11:14:16.575Z,82.70
2017-11-22T11:19:19.395Z,82.80
2017-11-22T11:24:21.931Z,82.80
2017-11-22T11:29:24.779Z,82.70
2017-11-22T11:34:27.324Z,82.80
2017-11-22T11:39:29.883Z,82.10
2017-11-22T11:44:32.436Z,82.80
2017-11-22T11:49:34.984Z,82.60
2017-11-22T11:54:37.534Z,82.60
2017-11-22T11:59:40.089Z,82.60
2017-11-22T12:04:42.668Z,82.30
2017-11-22T12:09:45.216Z,82.30
2017-11-22T12:14:47.772Z,82.00
2017-11-22T12:19:51.093Z,81.90
2017-11-22T12:24:54.417Z,81.80
2017-11-22T12:29:56.979Z,81.80
2017-11-22T12:34:59.545Z,81.60
2017-11-22T12:40:02.101Z,81.70
2017-11-22T12:45:04.658Z,81.60
2017-11-22T12:50:08.036Z,81.80
2017-11-22T12:55:10.684Z,81.70
2017-11-22T13:00:13.242Z,81.80
2017-11-22T13:05:15.797Z,82.30
2017-11-22T13:15:46.360Z,82.50
2017-11-22T13:20:48.903Z,82.30
2017-11-22T13:25:51.442Z,81.60
2017-11-22T13:30:54.012Z,82.20
2017-11-22T13:35:56.569Z,82.00
2017-11-22T13:40:59.113Z,82.40
2017-11-22T13:46:01.673Z,82.10
2017-11-22T13:51:04.236Z,82.70
2017-11-22T13:56:06.789Z,83.00
2017-11-22T14:01:10.739Z,83.10
2017-11-22T14:06:13.306Z,83.10
2017-11-22T14:11:15.877Z,83.10
2017-11-22T14:16:18.424Z,84.00
2017-11-22T14:21:20.984Z,83.10
2017-11-22T14:26:23.569Z,82.80
2017-11-22T14:31:26.137Z,82.00
2017-11-22T14:36:28.683Z,81.90
2017-11-22T14:41:31.256Z,81.60
2017-11-22T14:46:33.827Z,81.20
2017-11-22T14:51:36.396Z,80.70
2017-11-22T14:56:38.940Z,81.00
2017-11-22T15:01:41.496Z,81.30
2017-11-22T15:06:44.813Z,81.80
2017-11-22T15:11:47.375Z,81.80
2017-11-22T15:16:49.936Z,81.80
2017-11-22T15:21:52.497Z,81.70
2017-11-22T15:26:55.936Z,81.70
2017-11-22T15:31:58.495Z,81.70
2017-11-22T15:37:01.053Z,81.80
2017-11-22T15:42:03.601Z,81.40
2017-11-22T15:47:06.155Z,81.40
2017-11-22T15:52:09.025Z,81.20
2017-11-22T15:57:11.574Z,81.00
2017-11-22T16:02:14.123Z,80.70
2017-11-22T16:07:16.724Z,80.60
2017-11-22T16:12:19.294Z,80.40
2017-11-22T16:17:22.300Z,80.60
2017-11-22T16:22:24.859Z,79.90
2017-11-22T16:27:27.419Z,79.90
2017-11-22T16:32:29.964Z,79.70
2017-11-22T16:37:32.600Z,79.70
2017-11-22T16:42:35.162Z,79.60
2017-11-22T16:47:37.732Z,79.50
2017-11-22T16:52:41.035Z,79.50
2017-11-22T16:57:43.584Z,79.40
2017-11-22T17:02:46.135Z,79.40
2017-11-22T17:07:48.696Z,79.30
2017-11-22T17:12:51.249Z,79.20
2017-11-22T17:17:53.832Z,79.10
2017-11-22T17:22:56.464Z,79.10
2017-11-22T17:27:59.030Z,79.10
2017-11-22T17:33:01.579Z,79.10
2017-11-22T17:38:04.136Z,79.10
2017-11-22T17:43:07.472Z,79.00
2017-11-22T17:48:10.027Z,79.00
2017-11-22T17:53:12.589Z,79.00
2017-11-22T17:58:15.181Z,78.90
2017-11-22T18:03:17.728Z,78.80
2017-11-22T18:08:20.285Z,78.80
2017-11-22T18:13:22.841Z,78.80
2017-11-22T18:18:25.652Z,78.70
2017-11-22T18:23:28.198Z,78.50
2017-11-22T18:28:30.754Z,78.50
2017-11-22T18:33:33.306Z,78.40
2017-11-22T18:38:36.603Z,78.50
2017-11-22T18:43:39.178Z,78.50
2017-11-22T18:48:41.724Z,78.40
2017-11-22T18:53:44.315Z,78.60
2017-11-22T18:58:47.648Z,78.50
2017-11-22T19:03:50.200Z,78.50
2017-11-22T19:08:52.743Z,78.50
2017-11-22T19:13:55.293Z,78.50
2017-11-22T19:18:57.847Z,78.40
2017-11-22T19:24:00.434Z,78.40
2017-11-22T19:29:03.009Z,78.50
2017-11-22T19:34:05.558Z,78.50
2017-11-22T19:39:08.885Z,78.50
2017-11-22T19:44:12.256Z,78.50
2017-11-22T19:49:14.803Z,78.40
2017-11-22T19:54:17.364Z,78.40
2017-11-22T19:59:19.933Z,78.40
2017-11-22T20:04:22.489Z,78.40
2017-11-22T20:09:25.042Z,78.30
2017-11-22T20:14:27.581Z,78.70
2017-11-22T20:19:30.119Z,78.20
2017-11-22T20:24:32.697Z,78.30
2017-11-22T20:29:35.296Z,78.10
2017-11-22T20:34:38.626Z,78.20
2017-11-22T20:39:41.181Z,78.20
2017-11-22T20:44:43.791Z,78.10
2017-11-22T21:00:56.653Z,77.90
2017-11-22T21:06:01.059Z,77.80
2017-11-22T21:11:08.005Z,77.60
2017-11-22T21:16:12.621Z,77.80
2017-11-22T21:21:15.869Z,77.80
2017-11-22T21:26:19.501Z,77.80
2017-11-22T21:31:24.049Z,77.90
2017-11-22T21:36:27.509Z,77.80
2017-11-22T21:41:31.966Z,77.90
2017-11-22T21:46:38.400Z,77.80
2017-11-22T21:51:42.938Z,77.80
2017-11-22T21:56:49.285Z,78.50
2017-11-22T22:07:01.325Z,77.80
2017-11-22T22:12:07.644Z,77.90
2017-11-22T22:22:17.821Z,77.90
2017-11-22T22:27:20.835Z,77.60
2017-11-22T22:32:27.002Z,77.80
2017-11-22T22:42:38.481Z,78.10
2017-11-22T22:47:45.115Z,78.00
2017-11-22T22:57:58.118Z,78.20
2017-11-22T23:03:01.792Z,78.60
2017-11-22T23:08:06.475Z,78.60
2017-11-22T23:23:26.975Z,78.90
2017-11-22T23:28:31.520Z,78.70
2017-11-22T23:33:35.269Z,78.70
2017-11-22T23:38:42.296Z,78.90
2017-11-22T23:43:45.862Z,78.50
2017-11-22T23:48:52.250Z,78.70
2017-11-22T23:53:55.222Z,78.60
2017-11-22T23:58:59.700Z,79.00
